Time;durP1;ratioP1;P1;durP2;ratioP2;P2;SDS_P1;SDS_P2;PMS_P1;PMS_P2;Temp;Humidity;BMP_temperature;BMP_pressure;BME280_temperature;BME280_humidity;BME280_pressure;Samples;Min_cycle;Max_cycle;Signal;HPM_P1;HPM_P2
2021/04/04 00:01:55;;;;;;;18.93;5.90;;;5.10;99.90;;;;;;5009743;28;20237;-78
2021/04/04 00:04:22;;;;;;;18.57;5.20;;;5.10;99.90;;;;;;5011326;28;21069;-78
2021/04/04 00:06:50;;;;;;;16.33;5.13;;;5.10;99.90;;;;;;5011293;28;20824;-78
2021/04/04 00:09:19;;;;;;;15.73;5.30;;;5.00;99.90;;;;;;5011172;28;20554;-78
2021/04/04 00:11:48;;;;;;;16.67;6.10;;;5.00;99.90;;;;;;5011045;28;20484;-78
2021/04/04 00:14:18;;;;;;;20.47;6.00;;;5.00;99.90;;;;;;5011455;28;20249;-78
2021/04/04 00:16:45;;;;;;;22.47;5.53;;;5.00;99.90;;;;;;5010649;28;20295;-78
2021/04/04 00:19:13;;;;;;;19.77;5.07;;;5.00;99.90;;;;;;5011132;28;20485;-78
2021/04/04 00:21:40;;;;;;;18.00;5.40;;;5.00;99.90;;;;;;5010044;28;20561;-78
2021/04/04 00:24:09;;;;;;;18.27;5.57;;;5.00;99.90;;;;;;5010647;28;20245;-78
2021/04/04 00:26:36;;;;;;;15.43;5.17;;;5.00;99.90;;;;;;5014666;28;20511;-78
2021/04/04 00:29:06;;;;;;;15.43;5.30;;;4.90;99.90;;;;;;5011197;28;20519;-79
2021/04/04 00:31:34;;;;;;;15.27;5.17;;;5.00;99.90;;;;;;5030222;28;20752;-79
2021/04/04 00:34:02;;;;;;;15.10;4.83;;;4.90;99.90;;;;;;5031257;28;20293;-79
2021/04/04 00:36:29;;;;;;;13.23;4.67;;;5.00;99.90;;;;;;5030986;28;20569;-79
2021/04/04 00:38:57;;;;;;;22.37;5.67;;;4.90;99.90;;;;;;5030703;28;20989;-79
2021/04/04 00:41:24;;;;;;;16.33;5.47;;;4.90;99.90;;;;;;5029739;28;20471;-78
2021/04/04 00:43:53;;;;;;;14.43;4.50;;;4.90;99.90;;;;;;4988951;28;20485;-79
2021/04/04 00:46:20;;;;;;;18.67;5.00;;;4.80;99.90;;;;;;5003548;28;20484;-78
2021/04/04 00:48:48;;;;;;;15.90;5.10;;;4.90;99.90;;;;;;5010999;28;20537;-79
2021/04/04 00:51:16;;;;;;;16.73;5.43;;;4.90;99.90;;;;;;5008795;28;20237;-78
2021/04/04 00:53:44;;;;;;;15.87;4.90;;;4.80;99.90;;;;;;5011350;28;21881;-78
2021/04/04 00:56:12;;;;;;;15.63;5.13;;;4.80;99.90;;;;;;4998021;28;20555;-78
2021/04/04 00:58:40;;;;;;;16.57;4.53;;;4.70;99.90;;;;;;5011138;28;20995;-78
2021/04/04 01:01:09;;;;;;;18.10;4.70;;;4.70;99.90;;;;;;5010276;28;20484;-79
2021/04/04 01:03:37;;;;;;;15.97;5.07;;;4.70;99.90;;;;;;5015381;28;20581;-78
2021/04/04 01:06:08;;;;;;;19.00;5.20;;;4.70;99.90;;;;;;5031392;28;20271;-79
2021/04/04 01:08:36;;;;;;;14.77;5.13;;;4.70;99.90;;;;;;5031023;28;20294;-79
2021/04/04 01:11:05;;;;;;;17.33;5.13;;;4.70;99.90;;;;;;5030252;28;20479;-79
2021/04/04 01:13:46;;;;;;;15.70;4.10;;;4.70;99.90;;;;;;5032379;28;20481;-79
2021/04/04 01:16:17;;;;;;;12.67;5.00;;;4.60;99.90;;;;;;5035905;28;20242;-78
2021/04/04 01:18:54;;;;;;;15.77;4.63;;;4.60;99.90;;;;;;5036981;28;20350;-78
2021/04/04 01:21:28;;;;;;;16.00;5.10;;;4.60;99.90;;;;;;5035982;28;20242;-78
2021/04/04 01:24:14;;;;;;;10.20;4.50;;;4.60;99.90;;;;;;5022608;28;20483;-79
2021/04/04 01:26:52;;;;;;;13.90;4.30;;;4.60;99.90;;;;;;5010057;28;20236;-78
2021/04/04 01:29:24;;;;;;;16.10;5.30;;;4.60;99.90;;;;;;5015779;28;20671;-78
2021/04/04 01:31:54;;;;;;;19.03;5.20;;;4.60;99.90;;;;;;4995568;28;20259;-79
2021/04/04 01:34:26;;;;;;;11.77;4.00;;;4.60;99.90;;;;;;4997260;28;20534;-79
2021/04/04 01:36:59;;;;;;;19.20;5.10;;;4.50;99.90;;;;;;4996767;28;20500;-78
2021/04/04 01:39:33;;;;;;;15.93;4.87;;;4.50;99.90;;;;;;5007738;28;20231;-79
2021/04/04 01:42:01;;;;;;;16.37;4.67;;;4.50;99.90;;;;;;5015452;28;20471;-78
2021/04/04 01:44:32;;;;;;;15.57;4.30;;;4.50;99.90;;;;;;5029598;28;20237;-79
2021/04/04 01:47:00;;;;;;;16.03;4.43;;;4.50;99.90;;;;;;5030099;28;20248;-79
2021/04/04 01:49:28;;;;;;;20.83;5.27;;;4.50;99.90;;;;;;5007751;28;20476;-79
2021/04/04 01:51:56;;;;;;;17.50;5.00;;;4.50;99.90;;;;;;5016113;28;20482;-78
2021/04/04 01:54:23;;;;;;;13.50;4.93;;;4.60;99.90;;;;;;5016512;28;20244;-78
2021/04/04 01:56:53;;;;;;;17.50;4.67;;;4.60;99.90;;;;;;5016316;28;20530;-78
2021/04/04 01:59:22;;;;;;;14.00;4.50;;;4.60;99.90;;;;;;5016129;28;20484;-79
2021/04/04 02:01:52;;;;;;;15.10;5.03;;;4.60;99.90;;;;;;5016340;28;20502;-78
2021/04/04 02:04:19;;;;;;;17.63;4.60;;;4.60;99.90;;;;;;5032943;28;20488;-79
2021/04/04 02:06:47;;;;;;;19.13;5.23;;;4.70;99.90;;;;;;5017098;28;20240;-78
2021/04/04 02:09:16;;;;;;;17.03;5.17;;;4.70;99.90;;;;;;5017499;28;20306;-78
2021/04/04 02:11:49;;;;;;;14.13;4.50;;;4.70;99.90;;;;;;5016920;28;20510;-79
2021/04/04 02:14:20;;;;;;;15.13;4.77;;;4.70;99.90;;;;;;5017763;28;20256;-78
2021/04/04 02:16:53;;;;;;;14.07;4.40;;;4.70;99.90;;;;;;5015709;28;20237;-78
2021/04/04 02:19:24;;;;;;;18.30;4.47;;;4.80;99.90;;;;;;5016713;28;20577;-79
2021/04/04 02:21:55;;;;;;;12.80;4.40;;;4.70;99.90;;;;;;5016276;28;20304;-79
2021/04/04 02:24:23;;;;;;;14.97;4.40;;;4.70;99.90;;;;;;5016506;28;20621;-79
2021/04/04 02:26:52;;;;;;;14.37;4.47;;;4.70;99.90;;;;;;5013522;28;20264;-79
2021/04/04 02:29:20;;;;;;;13.20;4.83;;;4.70;99.90;;;;;;5013017;28;20252;-78
2021/04/04 02:31:59;;;;;;;14.17;4.47;;;4.70;99.90;;;;;;5013068;28;20751;-79
2021/04/04 02:34:34;;;;;;;17.80;4.93;;;4.70;99.90;;;;;;5005940;28;20246;-78
2021/04/04 02:37:03;;;;;;;21.47;5.03;;;4.70;99.90;;;;;;5012755;28;20467;-79
2021/04/04 02:39:35;;;;;;;14.73;4.30;;;4.70;99.90;;;;;;5012618;28;20471;-79
2021/04/04 02:42:03;;;;;;;17.70;4.90;;;4.70;99.90;;;;;;5012001;28;20468;-79
2021/04/04 02:44:32;;;;;;;13.87;5.10;;;4.70;99.90;;;;;;5013462;28;20469;-79
2021/04/04 02:47:07;;;;;;;16.20;4.57;;;4.70;99.90;;;;;;5012648;28;20244;-79
2021/04/04 02:49:36;;;;;;;14.83;4.50;;;4.70;99.90;;;;;;5013642;28;20291;-79
2021/04/04 02:52:07;;;;;;;15.27;4.60;;;4.70;99.90;;;;;;5028877;28;20528;-79
2021/04/04 02:54:37;;;;;;;14.57;5.17;;;4.80;99.90;;;;;;5027544;28;20491;-79
2021/04/04 02:57:06;;;;;;;14.93;4.70;;;4.80;99.90;;;;;;4994254;28;20237;-78
2021/04/04 02:59:41;;;;;;;16.13;5.07;;;4.80;99.90;;;;;;4993711;28;20645;-79
2021/04/04 03:02:15;;;;;;;12.93;4.50;;;4.90;99.90;;;;;;4993260;28;20245;-79
2021/04/04 03:04:44;;;;;;;16.67;5.37;;;4.80;99.90;;;;;;4993694;28;20245;-78
2021/04/04 03:07:16;;;;;;;17.63;4.60;;;4.80;99.90;;;;;;5008828;28;20234;-79
2021/04/04 03:09:48;;;;;;;19.37;5.10;;;4.90;99.90;;;;;;5008163;28;20504;-79
2021/04/04 03:12:16;;;;;;;16.27;4.20;;;4.90;99.90;;;;;;4992823;28;20253;-79
2021/04/04 03:14:46;;;;;;;14.30;4.27;;;4.90;99.90;;;;;;5008358;28;20264;-78
2021/04/04 03:17:16;;;;;;;15.07;4.10;;;4.90;99.90;;;;;;4997592;28;21019;-79
2021/04/04 03:19:46;;;;;;;16.37;4.10;;;5.00;99.90;;;;;;5011959;28;20249;-78
2021/04/04 03:22:14;;;;;;;16.77;3.90;;;5.00;99.90;;;;;;5012474;28;20574;-79
2021/04/04 03:24:43;;;;;;;11.73;3.93;;;5.00;99.90;;;;;;5010935;28;20541;-79
2021/04/04 03:27:11;;;;;;;15.00;3.43;;;5.00;99.90;;;;;;4993077;28;20582;-79
2021/04/04 03:29:40;;;;;;;14.30;3.70;;;5.00;99.90;;;;;;5008084;28;20529;-78
2021/04/04 03:32:08;;;;;;;17.90;4.68;;;5.00;99.90;;;;;;5010850;28;20426;-79
2021/04/04 03:34:38;;;;;;;12.17;3.67;;;5.00;99.90;;;;;;5010197;28;20559;-79
2021/04/04 03:37:06;;;;;;;14.20;3.30;;;5.10;99.90;;;;;;5011578;28;20264;-79
2021/04/04 03:39:33;;;;;;;11.13;4.07;;;5.10;99.90;;;;;;5006140;28;20483;-79
2021/04/04 03:42:02;;;;;;;14.93;3.33;;;5.10;99.90;;;;;;5011946;28;20475;-79
2021/04/04 03:44:33;;;;;;;14.90;3.77;;;5.10;99.90;;;;;;5012894;28;20229;-79
2021/04/04 03:47:02;;;;;;;11.80;3.00;;;5.10;99.90;;;;;;5012416;28;20489;-79
2021/04/04 03:49:32;;;;;;;14.00;3.40;;;5.10;99.90;;;;;;5011971;28;20264;-79
2021/04/04 03:52:01;;;;;;;9.17;3.00;;;5.20;99.90;;;;;;5011362;28;20244;-79
2021/04/04 03:54:31;;;;;;;11.43;2.97;;;5.20;99.90;;;;;;5012653;28;20287;-79
2021/04/04 03:57:00;;;;;;;11.20;3.20;;;5.20;99.90;;;;;;5013139;28;20468;-79
2021/04/04 03:59:29;;;;;;;11.93;3.00;;;5.20;99.90;;;;;;5012049;28;20700;-79
2021/04/04 04:01:58;;;;;;;14.27;3.20;;;5.20;99.90;;;;;;5011170;28;20244;-79
2021/04/04 04:04:27;;;;;;;11.77;2.87;;;5.20;99.90;;;;;;5011881;28;20249;-78
2021/04/04 04:06:56;;;;;;;12.77;3.43;;;5.20;99.90;;;;;;5011916;28;20479;-79
2021/04/04 04:09:26;;;;;;;14.57;2.90;;;5.20;99.90;;;;;;5011669;28;20237;-79
2021/04/04 04:11:54;;;;;;;13.40;3.47;;;5.20;99.90;;;;;;5011240;28;20740;-79
2021/04/04 04:14:24;;;;;;;15.27;3.50;;;5.20;99.90;;;;;;5011559;28;20241;-79
2021/04/04 04:16:52;;;;;;;11.77;3.43;;;5.20;99.90;;;;;;5012086;28;20295;-79
2021/04/04 04:19:19;;;;;;;11.80;3.80;;;5.20;99.90;;;;;;5012140;28;20237;-79
2021/04/04 04:21:48;;;;;;;12.37;3.30;;;5.20;99.90;;;;;;5011435;28;20244;-79
2021/04/04 04:24:17;;;;;;;15.23;3.70;;;5.20;99.90;;;;;;5011995;28;20268;-79
2021/04/04 04:26:47;;;;;;;11.03;2.73;;;5.20;99.90;;;;;;5031207;28;20264;-79
2021/04/04 04:29:17;;;;;;;11.97;3.30;;;5.20;99.90;;;;;;5031247;28;20275;-79
2021/04/04 04:31:47;;;;;;;12.73;3.17;;;5.20;99.90;;;;;;5014965;28;20327;-78
2021/04/04 04:34:15;;;;;;;12.47;3.57;;;5.20;99.90;;;;;;5009964;28;20814;-79
2021/04/04 04:36:43;;;;;;;11.40;3.07;;;5.20;99.90;;;;;;5010611;28;20240;-79
2021/04/04 04:39:12;;;;;;;15.23;3.20;;;5.20;99.90;;;;;;5010942;28;20233;-79
2021/04/04 04:41:43;;;;;;;12.07;3.20;;;5.20;99.90;;;;;;5008420;28;20236;-79
2021/04/04 04:44:15;;;;;;;12.50;2.97;;;5.20;99.90;;;;;;5009145;28;20233;-79
2021/04/04 04:46:44;;;;;;;14.10;3.20;;;5.20;99.90;;;;;;5009405;28;20280;-78
2021/04/04 04:49:12;;;;;;;15.03;3.10;;;5.20;99.90;;;;;;5009648;28;20279;-79
2021/04/04 04:51:40;;;;;;;11.10;3.67;;;5.20;99.90;;;;;;5008912;28;20733;-79
2021/04/04 04:54:09;;;;;;;10.50;3.10;;;5.20;99.90;;;;;;5004296;28;21003;-78
2021/04/04 04:56:39;;;;;;;11.17;2.80;;;5.50;99.90;;;;;;5000692;28;20261;-79
2021/04/04 04:59:07;;;;;;;12.97;2.73;;;5.40;99.90;;;;;;5011494;28;20297;-78
2021/04/04 05:01:40;;;;;;;13.73;3.50;;;5.40;99.90;;;;;;5009999;28;20260;-79
2021/04/04 05:04:08;;;;;;;13.97;3.80;;;5.30;99.90;;;;;;5010585;28;20644;-78
2021/04/04 05:06:37;;;;;;;10.87;3.37;;;5.30;99.90;;;;;;5009436;28;20241;-78
2021/04/04 05:09:07;;;;;;;8.13;2.47;;;5.30;99.90;;;;;;5011226;28;20681;-79
2021/04/04 05:11:40;;;;;;;13.43;3.30;;;5.30;99.90;;;;;;5010691;28;20241;-78
2021/04/04 05:14:11;;;;;;;11.23;3.63;;;5.30;99.90;;;;;;5011355;28;20237;-78
2021/04/04 05:16:39;;;;;;;10.40;3.20;;;5.30;99.90;;;;;;5011103;28;20303;-78
2021/04/04 05:19:09;;;;;;;14.87;2.57;;;5.30;99.90;;;;;;5010200;28;20266;-79
2021/04/04 05:21:38;;;;;;;12.37;3.20;;;5.40;99.90;;;;;;5008628;28;20236;-79
2021/04/04 05:24:09;;;;;;;13.20;3.23;;;5.40;99.90;;;;;;5007931;28;20237;-78
2021/04/04 05:26:39;;;;;;;8.80;2.30;;;5.40;99.90;;;;;;5002057;28;20264;-79
2021/04/04 05:29:09;;;;;;;11.20;3.00;;;5.40;99.90;;;;;;5002942;28;20241;-78
2021/04/04 05:31:51;;;;;;;10.87;3.13;;;5.40;99.90;;;;;;5004864;28;20299;-78
2021/04/04 05:34:21;;;;;;;14.30;3.10;;;5.50;99.90;;;;;;5005965;28;21014;-78
2021/04/04 05:36:53;;;;;;;12.57;2.83;;;5.40;99.90;;;;;;5008837;28;20225;-78
2021/04/04 05:39:23;;;;;;;10.83;2.80;;;5.50;99.90;;;;;;5004553;28;20483;-78
2021/04/04 05:41:54;;;;;;;11.87;3.13;;;5.50;99.90;;;;;;4999934;28;20484;-79
2021/04/04 05:44:27;;;;;;;12.83;3.03;;;5.50;99.90;;;;;;4999850;28;20263;-78
2021/04/04 05:47:04;;;;;;;10.83;2.80;;;5.50;99.90;;;;;;4998125;28;20326;-78
2021/04/04 05:49:51;;;;;;;11.57;3.43;;;5.50;99.90;;;;;;5004009;28;20241;-78
2021/04/04 05:52:30;;;;;;;12.43;3.00;;;5.50;99.90;;;;;;5022493;28;20250;-78
2021/04/04 05:55:18;;;;;;;10.07;2.63;;;5.50;99.90;;;;;;5005087;28;20237;-79
2021/04/04 05:57:54;;;;;;;9.80;2.57;;;5.60;99.90;;;;;;5000500;28;20287;-78
2021/04/04 06:00:25;;;;;;;11.80;2.60;;;5.50;99.90;;;;;;5007583;28;20236;-80
2021/04/04 06:03:57;;;;;;;7.70;2.63;;;5.60;99.90;;;;;;5013542;28;20237;-78
2021/04/04 06:06:53;;;;;;;8.73;2.30;;;5.60;99.90;;;;;;5015260;28;20267;-78
2021/04/04 06:10:05;;;;;;;8.33;2.37;;;5.60;99.90;;;;;;5014122;28;20240;-79
2021/04/04 06:12:58;;;;;;;9.70;2.57;;;5.60;99.90;;;;;;5014881;28;21302;-78
2021/04/04 06:15:38;;;;;;;14.43;3.00;;;5.60;99.90;;;;;;5013149;28;20257;-78
2021/04/04 06:18:20;;;;;;;10.90;2.67;;;5.60;99.90;;;;;;5011488;28;20229;-79
2021/04/04 06:21:00;;;;;;;12.40;3.33;;;5.60;99.90;;;;;;5014580;28;20323;-78
2021/04/04 06:23:34;;;;;;;10.23;2.90;;;5.60;99.90;;;;;;5015218;28;20249;-79
2021/04/04 06:26:36;;;;;;;10.67;2.73;;;5.60;99.90;;;;;;5021564;28;20310;-78
2021/04/04 06:29:12;;;;;;;8.77;3.07;;;5.50;99.90;;;;;;5012209;28;20228;-79
2021/04/04 06:31:53;;;;;;;11.87;3.33;;;5.50;99.90;;;;;;5010249;28;20309;-79
2021/04/04 06:34:30;;;;;;;11.60;3.07;;;5.60;99.90;;;;;;5009381;28;20268;-79
2021/04/04 06:37:30;;;;;;;9.47;3.20;;;5.60;99.90;;;;;;5009895;28;20615;-79
2021/04/04 06:40:09;;;;;;;10.10;3.00;;;5.60;99.90;;;;;;5001152;28;20287;-79
2021/04/04 06:42:53;;;;;;;14.37;3.60;;;5.60;99.90;;;;;;5010681;28;20255;-79
2021/04/04 06:45:33;;;;;;;10.77;3.50;;;5.60;99.90;;;;;;5011435;28;20268;-79
2021/04/04 06:48:15;;;;;;;12.90;3.60;;;5.60;99.90;;;;;;5011326;28;20291;-79
2021/04/04 06:50:49;;;;;;;14.00;3.93;;;5.60;99.90;;;;;;5012741;28;20272;-79
2021/04/04 06:53:30;;;;;;;10.07;3.27;;;5.60;99.90;;;;;;5011175;28;20232;-78
2021/04/04 06:56:07;;;;;;;10.57;3.53;;;5.70;99.90;;;;;;5008503;28;20254;-78
2021/04/04 06:58:46;;;;;;;10.67;3.43;;;5.70;99.90;;;;;;5009185;28;20315;-78
2021/04/04 07:01:35;;;;;;;7.73;3.57;;;5.70;99.90;;;;;;5004177;28;20239;-78
2021/04/04 07:04:11;;;;;;;9.10;3.77;;;5.80;99.90;;;;;;4992191;28;20238;-78
2021/04/04 07:07:11;;;;;;;9.10;3.70;;;5.90;99.90;;;;;;4992462;28;20237;-80
2021/04/04 07:10:20;;;;;;;13.83;4.20;;;5.90;99.90;;;;;;4982753;28;20319;-78
2021/04/04 07:13:20;;;;;;;15.07;4.87;;;5.90;99.90;;;;;;4959724;28;20263;-78
2021/04/04 07:16:21;;;;;;;13.17;4.07;;;5.90;99.90;;;;;;4995351;28;20311;-78
2021/04/04 07:19:13;;;;;;;10.03;4.03;;;6.00;99.90;;;;;;5003191;28;20641;-78
2021/04/04 07:21:56;;;;;;;12.10;4.33;;;6.00;99.90;;;;;;5012790;28;20716;-79
2021/04/04 07:24:36;;;;;;;11.63;4.27;;;6.00;99.90;;;;;;5018499;28;20283;-79
2021/04/04 07:27:14;;;;;;;11.70;4.17;;;6.00;99.90;;;;;;5013192;28;20620;-78
2021/04/04 07:30:28;;;;;;;13.80;4.47;;;5.90;99.90;;;;;;5013287;28;20306;-78
2021/04/04 07:33:01;;;;;;;10.57;3.73;;;5.90;99.90;;;;;;5007709;28;20283;-78
2021/04/04 07:35:40;;;;;;;13.97;5.27;;;5.90;99.90;;;;;;5007202;28;20336;-78
2021/04/04 07:38:15;;;;;;;13.03;4.53;;;6.00;99.90;;;;;;5009225;28;20878;-78
2021/04/04 07:40:52;;;;;;;15.67;5.20;;;6.00;99.90;;;;;;5004209;28;20245;-78
2021/04/04 07:43:30;;;;;;;13.77;4.63;;;6.10;99.90;;;;;;5007769;28;20260;-78
2021/04/04 07:46:05;;;;;;;13.23;4.40;;;6.10;99.90;;;;;;5010618;28;20294;-78
2021/04/04 07:48:59;;;;;;;14.00;4.87;;;6.10;99.90;;;;;;5005670;28;20315;-78
2021/04/04 07:51:32;;;;;;;14.90;5.13;;;6.20;99.90;;;;;;5008954;28;20239;-79
2021/04/04 07:54:05;;;;;;;12.03;5.20;;;6.10;99.90;;;;;;5012831;28;20241;-78
2021/04/04 07:56:39;;;;;;;17.90;5.53;;;6.20;99.90;;;;;;5013415;28;20304;-79
2021/04/04 07:59:15;;;;;;;15.30;5.30;;;6.20;99.90;;;;;;5012492;28;20655;-79
2021/04/04 08:01:52;;;;;;;12.43;5.33;;;6.20;99.90;;;;;;5012910;28;20334;-79
2021/04/04 08:04:27;;;;;;;15.77;5.07;;;6.20;99.90;;;;;;5012542;28;20256;-78
2021/04/04 08:07:01;;;;;;;18.40;6.20;;;6.20;99.90;;;;;;5013424;28;20287;-79
2021/04/04 08:09:45;;;;;;;13.43;5.70;;;6.20;99.90;;;;;;5012677;28;20585;-78
2021/04/04 08:12:24;;;;;;;16.03;6.27;;;6.20;99.90;;;;;;5011573;28;20233;-78
2021/04/04 08:15:04;;;;;;;15.27;5.97;;;6.20;99.90;;;;;;5013901;28;20248;-78
2021/04/04 08:17:34;;;;;;;15.80;6.33;;;6.20;99.90;;;;;;5012192;28;20291;-78
2021/04/04 08:20:07;;;;;;;17.23;5.27;;;6.30;99.90;;;;;;972619;28;10001862;-78
2021/04/04 08:22:39;;;;;;;12.57;5.80;;;6.40;99.90;;;;;;5003949;28;20241;-78
2021/04/04 08:25:12;;;;;;;15.83;6.40;;;6.40;99.90;;;;;;5015721;28;20244;-78
2021/04/04 08:27:48;;;;;;;14.03;5.40;;;6.50;99.90;;;;;;5011283;28;20232;-78
2021/04/04 08:30:22;;;;;;;15.20;5.23;;;6.50;99.90;;;;;;5010524;28;20594;-78
2021/04/04 08:32:54;;;;;;;14.40;5.73;;;6.50;99.90;;;;;;5022575;28;20228;-79
2021/04/04 08:35:26;;;;;;;15.70;5.40;;;6.50;99.90;;;;;;5032243;28;20243;-79
2021/04/04 08:38:04;;;;;;;17.23;5.47;;;6.60;99.90;;;;;;5034286;28;20251;-78
2021/04/04 08:40:32;;;;;;;13.77;5.20;;;6.70;99.90;;;;;;5034378;28;20290;-79
2021/04/04 08:43:00;;;;;;;12.67;5.07;;;6.70;99.90;;;;;;5033292;28;20287;-79
2021/04/04 08:45:38;;;;;;;14.43;5.23;;;6.80;99.90;;;;;;5020920;28;20316;-79
2021/04/04 08:48:06;;;;;;;9.93;4.70;;;6.80;99.90;;;;;;5011620;28;20233;-79
2021/04/04 08:50:36;;;;;;;11.00;4.47;;;6.90;99.90;;;;;;5014156;28;20712;-79
2021/04/04 08:53:17;;;;;;;11.77;4.70;;;6.90;99.90;;;;;;5016084;28;20245;-78
2021/04/04 08:55:48;;;;;;;8.10;3.40;;;6.90;99.90;;;;;;5012257;28;20264;-79
2021/04/04 08:58:17;;;;;;;9.97;3.93;;;7.00;99.90;;;;;;5012605;28;20268;-79
2021/04/04 09:00:50;;;;;;;8.33;3.17;;;7.00;99.90;;;;;;5024472;28;20755;-79
2021/04/04 09:03:21;;;;;;;12.13;3.20;;;7.00;99.90;;;;;;5010795;28;20772;-78
2021/04/04 09:05:49;;;;;;;8.27;3.20;;;7.00;99.90;;;;;;5011005;28;20693;-78
2021/04/04 09:08:17;;;;;;;10.30;3.20;;;7.10;99.90;;;;;;5025322;28;20257;-78
2021/04/04 09:10:47;;;;;;;9.20;2.90;;;7.20;99.90;;;;;;5012955;28;20245;-78
2021/04/04 09:13:16;;;;;;;9.00;3.00;;;7.30;99.90;;;;;;5012794;28;20713;-79
2021/04/04 09:15:49;;;;;;;8.70;3.93;;;7.40;99.90;;;;;;5007974;28;20238;-78
2021/04/04 09:18:19;;;;;;;8.33;2.70;;;7.50;99.90;;;;;;5007528;28;20601;-78
2021/04/04 09:20:49;;;;;;;10.20;3.20;;;7.40;99.90;;;;;;5011254;28;20620;-78
2021/04/04 09:23:21;;;;;;;9.23;2.60;;;7.50;99.90;;;;;;5008906;28;20263;-78
2021/04/04 09:25:56;;;;;;;10.70;2.80;;;7.50;99.90;;;;;;5011402;28;20292;-79
2021/04/04 09:28:26;;;;;;;8.60;2.60;;;7.60;99.90;;;;;;5011901;28;20225;-79
2021/04/04 09:30:55;;;;;;;10.47;3.40;;;7.70;99.90;;;;;;5025420;28;20251;-80
2021/04/04 09:33:29;;;;;;;8.67;2.33;;;7.70;99.90;;;;;;5017294;28;20236;-79
2021/04/04 09:35:59;;;;;;;5.73;2.43;;;7.80;99.90;;;;;;5014002;28;20689;-79
2021/04/04 09:38:30;;;;;;;9.43;3.20;;;7.70;99.90;;;;;;5005561;28;20426;-79
2021/04/04 09:41:00;;;;;;;6.63;2.60;;;7.80;99.90;;;;;;5008415;28;20241;-79
2021/04/04 09:43:28;;;;;;;8.23;2.40;;;7.70;99.90;;;;;;5011562;28;20259;-80
2021/04/04 09:46:05;;;;;;;9.67;2.20;;;7.80;99.90;;;;;;5011135;28;20233;-79
2021/04/04 09:48:40;;;;;;;10.60;2.63;;;7.90;99.90;;;;;;5010668;28;20251;-79
2021/04/04 09:51:10;;;;;;;6.93;2.33;;;7.80;99.90;;;;;;4992433;28;20240;-79
2021/04/04 09:53:40;;;;;;;6.47;2.07;;;7.70;99.90;;;;;;5006714;28;20244;-79
2021/04/04 09:56:10;;;;;;;9.87;2.93;;;7.70;99.90;;;;;;5012101;28;20326;-79
2021/04/04 09:58:43;;;;;;;8.93;2.17;;;7.70;99.90;;;;;;5028143;28;20243;-79
2021/04/04 10:01:20;;;;;;;9.63;1.90;;;7.60;99.90;;;;;;5008326;28;20331;-79
2021/04/04 10:04:03;;;;;;;8.57;2.30;;;7.40;99.90;;;;;;5012990;28;20241;-79
2021/04/04 10:06:32;;;;;;;10.20;2.00;;;7.30;99.90;;;;;;5011939;28;21323;-80
2021/04/04 10:09:02;;;;;;;8.77;2.37;;;7.20;99.90;;;;;;5010899;28;20245;-79
2021/04/04 10:11:32;;;;;;;9.23;2.40;;;7.30;99.90;;;;;;5011870;28;20697;-79
2021/04/04 10:14:08;;;;;;;10.50;2.27;;;7.40;99.90;;;;;;5009230;28;20233;-79
2021/04/04 10:16:38;;;;;;;10.17;2.37;;;7.60;99.90;;;;;;5006405;28;20264;-79
2021/04/04 10:19:08;;;;;;;9.27;2.20;;;7.70;99.90;;;;;;5011541;28;20237;-79
2021/04/04 10:22:02;;;;;;;6.83;2.37;;;7.90;99.90;;;;;;5002252;28;20273;-79
2021/04/04 10:24:32;;;;;;;5.53;1.90;;;8.00;99.90;;;;;;5009147;28;20247;-79
2021/04/04 10:27:22;;;;;;;6.30;2.03;;;8.10;99.90;;;;;;5012490;28;24813;-80
2021/04/04 10:30:05;;;;;;;9.67;2.27;;;8.00;99.90;;;;;;5010687;28;20586;-79
2021/04/04 10:32:35;;;;;;;8.53;2.30;;;8.00;99.90;;;;;;5009873;28;20237;-79
2021/04/04 10:35:08;;;;;;;8.33;2.53;;;8.10;99.90;;;;;;5011454;28;20414;-79
2021/04/04 10:37:42;;;;;;;10.47;2.60;;;8.00;99.90;;;;;;4997685;28;20245;-79
2021/04/04 10:40:13;;;;;;;8.43;2.50;;;7.90;99.90;;;;;;5013968;28;20233;-79
2021/04/04 10:42:55;;;;;;;10.87;2.77;;;7.90;99.90;;;;;;5008493;28;20237;-80
2021/04/04 10:45:23;;;;;;;9.00;2.53;;;7.90;99.90;;;;;;5013826;28;20232;-80
2021/04/04 10:48:06;;;;;;;11.03;2.50;;;7.80;99.90;;;;;;5009212;28;20240;-80
2021/04/04 10:50:36;;;;;;;5.63;2.03;;;7.90;99.90;;;;;;5010712;28;20293;-80
2021/04/04 10:53:03;;;;;;;8.87;2.20;;;8.00;99.90;;;;;;5008918;28;20237;-79
2021/04/04 10:55:31;;;;;;;7.67;2.30;;;8.00;99.90;;;;;;5015197;28;20225;-80
2021/04/04 10:57:58;;;;;;;5.27;1.80;;;8.20;99.90;;;;;;5007971;28;20225;-80
2021/04/04 11:00:26;;;;;;;5.33;1.80;;;8.20;99.90;;;;;;5011151;28;20720;-79
2021/04/04 11:02:57;;;;;;;5.07;1.53;;;8.20;99.90;;;;;;5009507;28;20867;-80
2021/04/04 11:05:25;;;;;;;5.07;1.20;;;8.30;99.90;;;;;;5009495;28;20268;-80
2021/04/04 11:07:54;;;;;;;4.77;1.60;;;8.40;99.90;;;;;;5007751;28;20243;-80
2021/04/04 11:10:22;;;;;;;4.17;1.60;;;8.60;99.90;;;;;;5008051;28;20567;-79
2021/04/04 11:12:52;;;;;;;5.10;1.67;;;8.70;99.90;;;;;;5008534;28;20268;-80
2021/04/04 11:15:21;;;;;;;4.63;1.60;;;8.50;99.90;;;;;;5011025;28;20242;-80
2021/04/04 11:17:49;;;;;;;3.67;1.50;;;8.50;99.90;;;;;;5025344;28;20501;-80
2021/04/04 11:20:19;;;;;;;6.67;2.10;;;8.50;99.90;;;;;;5007082;28;20307;-78
2021/04/04 11:22:47;;;;;;;7.73;2.40;;;8.50;99.90;;;;;;5010298;28;20248;-79
2021/04/04 11:25:17;;;;;;;6.67;1.50;;;8.40;99.90;;;;;;5008052;28;20236;-79
2021/04/04 11:27:47;;;;;;;7.83;2.33;;;8.40;99.90;;;;;;5014209;28;20260;-78
2021/04/04 11:30:17;;;;;;;9.17;2.80;;;8.30;99.90;;;;;;5014695;28;20772;-80
2021/04/04 11:32:48;;;;;;;9.07;2.17;;;8.20;99.90;;;;;;5008493;28;20267;-79
2021/04/04 11:35:17;;;;;;;7.43;2.10;;;8.10;99.90;;;;;;5008443;28;20249;-79
2021/04/04 11:37:45;;;;;;;7.33;2.40;;;8.20;99.90;;;;;;5007603;28;20744;-80
2021/04/04 11:40:20;;;;;;;5.47;2.20;;;8.20;99.90;;;;;;5013013;28;20309;-79
2021/04/04 11:42:52;;;;;;;9.20;2.00;;;8.20;99.90;;;;;;5009450;28;20240;-80
2021/04/04 11:45:38;;;;;;;8.20;2.30;;;8.20;99.90;;;;;;5006543;28;20295;-80
2021/04/04 11:48:31;;;;;;;6.73;1.90;;;8.30;99.90;;;;;;5004618;28;20322;-80
2021/04/04 11:51:39;;;;;;;8.50;2.10;;;8.50;99.90;;;;;;5011604;28;20294;-80
2021/04/04 11:54:06;;;;;;;8.90;2.17;;;8.80;99.90;;;;;;5007680;28;20241;-80
2021/04/04 11:56:48;;;;;;;8.13;2.23;;;8.90;99.90;;;;;;5013100;28;20268;-79
2021/04/04 11:59:18;;;;;;;4.90;1.97;;;8.80;99.90;;;;;;5014589;28;20252;-79
2021/04/04 12:01:46;;;;;;;6.33;2.00;;;8.50;99.90;;;;;;5011403;28;20500;-80
2021/04/04 12:04:19;;;;;;;11.00;1.73;;;8.30;99.90;;;;;;5008979;28;20317;-80
2021/04/04 12:07:05;;;;;;;6.83;1.80;;;8.20;99.90;;;;;;5005552;28;20293;-79
2021/04/04 12:09:34;;;;;;;6.07;1.57;;;8.10;99.90;;;;;;5000470;28;20237;-80
2021/04/04 12:12:05;;;;;;;3.70;1.30;;;8.10;99.90;;;;;;4997212;28;20237;-79
2021/04/04 12:14:45;;;;;;;4.10;1.97;;;8.20;99.90;;;;;;5008192;28;20291;-80
2021/04/04 12:17:14;;;;;;;3.93;1.50;;;8.40;99.90;;;;;;5010835;28;20236;-79
2021/04/04 12:19:44;;;;;;;5.53;1.63;;;8.60;99.90;;;;;;5014814;28;20230;-80
2021/04/04 12:22:14;;;;;;;6.00;2.00;;;8.90;99.90;;;;;;5012175;28;20245;-80
2021/04/04 12:24:43;;;;;;;4.57;1.50;;;8.90;99.90;;;;;;5017093;28;20289;-80
2021/04/04 12:27:13;;;;;;;6.33;1.50;;;8.80;99.90;;;;;;5013200;28;20237;-79
2021/04/04 12:29:42;;;;;;;6.87;1.83;;;8.70;99.90;;;;;;5014007;28;20242;-79
2021/04/04 12:32:18;;;;;;;8.10;2.03;;;8.50;99.90;;;;;;5011953;28;20245;-80
2021/04/04 12:34:46;;;;;;;5.10;1.90;;;8.40;99.90;;;;;;5003432;28;20653;-80
2021/04/04 12:37:16;;;;;;;7.20;1.80;;;8.30;99.90;;;;;;5014622;28;20233;-80
2021/04/04 12:39:50;;;;;;;6.70;2.13;;;8.20;99.90;;;;;;5004457;28;20232;-79
2021/04/04 12:42:19;;;;;;;11.03;2.87;;;8.30;99.90;;;;;;5008258;28;20245;-79
2021/04/04 12:44:49;;;;;;;7.23;2.30;;;8.30;99.90;;;;;;5013463;28;20331;-79
2021/04/04 12:47:23;;;;;;;7.93;2.37;;;8.40;99.90;;;;;;5008168;28;20780;-79
2021/04/04 12:49:56;;;;;;;5.57;1.90;;;8.50;99.90;;;;;;4993399;28;20273;-78
2021/04/04 12:52:38;;;;;;;6.50;2.23;;;8.60;99.90;;;;;;5002340;28;20236;-79
2021/04/04 12:55:22;;;;;;;6.47;2.33;;;8.70;99.90;;;;;;5007624;28;20237;-79
2021/04/04 12:57:56;;;;;;;8.80;2.50;;;8.70;99.90;;;;;;5008531;28;20238;-79
2021/04/04 13:00:26;;;;;;;7.33;2.70;;;8.90;99.90;;;;;;5007410;28;20231;-79
2021/04/04 13:03:06;;;;;;;7.10;2.90;;;9.10;99.90;;;;;;5015674;28;20237;-79
2021/04/04 13:05:40;;;;;;;8.57;3.57;;;9.20;99.90;;;;;;5007406;28;20234;-79
2021/04/04 13:08:18;;;;;;;8.73;2.60;;;9.10;99.90;;;;;;5010156;28;20236;-79
2021/04/04 13:10:48;;;;;;;7.90;2.80;;;9.00;99.90;;;;;;5011605;28;20273;-79
2021/04/04 13:13:18;;;;;;;7.03;2.70;;;8.90;99.90;;;;;;5012433;28;20245;-79
2021/04/04 13:15:46;;;;;;;15.80;4.00;;;8.80;99.90;;;;;;5012056;28;20241;-79
2021/04/04 13:18:26;;;;;;;9.23;2.93;;;8.80;99.90;;;;;;5012252;28;20245;-79
2021/04/04 13:20:56;;;;;;;7.73;2.50;;;8.60;99.90;;;;;;5008957;28;20233;-79
2021/04/04 13:23:25;;;;;;;10.93;2.87;;;8.50;99.90;;;;;;5007277;28;20685;-79